sensor_id;sensor_type;location;lat;lon;timestamp;pressure;altitude;pressure_sealevel;temperature;humidity
71643;BME280;59438;45.014;39.006;2022-10-15T00:00:50;101764.66;;;8.45;64.89
71643;BME280;59438;45.014;39.006;2022-10-15T00:03:17;101785.53;;;8.53;64.87
71643;BME280;59438;45.014;39.006;2022-10-15T00:05:43;101788.16;;;8.51;65.12
71643;BME280;59438;45.014;39.006;2022-10-15T00:08:11;101788.16;;;8.50;65.67
71643;BME280;59438;45.014;39.006;2022-10-15T00:10:38;101786.47;;;8.45;65.21
71643;BME280;59438;45.014;39.006;2022-10-15T00:13:05;101785.59;;;8.43;65.33
71643;BME280;59438;45.014;39.006;2022-10-15T00:15:31;101782.13;;;8.43;64.85
71643;BME280;59438;45.014;39.006;2022-10-15T00:17:58;101790.00;;;8.38;65.32
71643;BME280;59438;45.014;39.006;2022-10-15T00:20:24;101783.06;;;8.34;65.66
71643;BME280;59438;45.014;39.006;2022-10-15T00:22:51;101787.41;;;8.34;65.42
71643;BME280;59438;45.014;39.006;2022-10-15T00:25:19;101780.47;;;8.33;65.98
71643;BME280;59438;45.014;39.006;2022-10-15T00:27:45;101787.47;;;8.29;65.32
71643;BME280;59438;45.014;39.006;2022-10-15T00:30:12;101794.47;;;8.28;65.80
71643;BME280;59438;45.014;39.006;2022-10-15T00:32:38;101794.47;;;8.27;65.57
71643;BME280;59438;45.014;39.006;2022-10-15T00:35:06;101787.53;;;8.24;65.68
71643;BME280;59438;45.014;39.006;2022-10-15T00:37:32;101791.91;;;8.24;65.92
71643;BME280;59438;45.014;39.006;2022-10-15T00:39:59;101791.06;;;8.22;65.89
71643;BME280;59438;45.014;39.006;2022-10-15T00:42:26;101792.78;;;8.21;66.26
71643;BME280;59438;45.014;39.006;2022-10-15T00:44:55;101728.56;;;7.90;66.01
71643;BME280;59438;45.014;39.006;2022-10-15T00:47:32;101765.03;;;8.05;65.84
71643;BME280;59438;45.014;39.006;2022-10-15T00:50:03;101790.22;;;8.17;66.15
71643;BME280;59438;45.014;39.006;2022-10-15T00:52:36;101791.06;;;8.17;65.63
71643;BME280;59438;45.014;39.006;2022-10-15T00:55:07;101795.50;;;8.12;66.41
71643;BME280;59438;45.014;39.006;2022-10-15T00:57:36;101802.50;;;8.08;66.87
71643;BME280;59438;45.014;39.006;2022-10-15T01:00:06;101785.94;;;8.06;66.61
71643;BME280;59438;45.014;39.006;2022-10-15T01:02:33;101796.41;;;8.05;66.46
71643;BME280;59438;45.014;39.006;2022-10-15T01:05:00;101790.34;;;8.03;66.29
71643;BME280;59438;45.014;39.006;2022-10-15T01:07:26;101801.69;;;8.03;66.32
71643;BME280;59438;45.014;39.006;2022-10-15T01:09:53;101786.91;;;7.98;66.49
71643;BME280;59438;45.014;39.006;2022-10-15T01:12:27;101791.25;;;7.99;67.64
71643;BME280;59438;45.014;39.006;2022-10-15T01:15:04;101754.91;;;7.68;66.95
71643;BME280;59438;45.014;39.006;2022-10-15T01:17:40;101767.03;;;7.75;67.39
71643;BME280;59438;45.014;39.006;2022-10-15T01:23:48;101774.81;;;7.84;68.02
71643;BME280;59438;45.014;39.006;2022-10-15T01:26:40;101801.75;;;7.96;67.09
71643;BME280;59438;45.014;39.006;2022-10-15T01:29:21;101786.19;;;7.80;67.33
71643;BME280;59438;45.014;39.006;2022-10-15T01:32:01;101780.97;;;7.77;67.15
71643;BME280;59438;45.014;39.006;2022-10-15T01:34:35;101759.28;;;7.66;66.90
71643;BME280;59438;45.014;39.006;2022-10-15T01:37:08;101736.78;;;7.45;67.58
71643;BME280;59438;45.014;39.006;2022-10-15T01:39:37;101803.53;;;7.91;66.07
71643;BME280;59438;45.014;39.006;2022-10-15T01:42:09;101802.66;;;7.88;67.08
71643;BME280;59438;45.014;39.006;2022-10-15T01:44:42;101797.53;;;7.82;67.32
71643;BME280;59438;45.014;39.006;2022-10-15T01:47:16;101804.47;;;7.85;67.57
71643;BME280;59438;45.014;39.006;2022-10-15T01:49:45;101805.38;;;7.81;67.80
71643;BME280;59438;45.014;39.006;2022-10-15T01:52:15;101801.00;;;7.80;67.81
71643;BME280;59438;45.014;39.006;2022-10-15T01:54:44;101768.03;;;7.60;68.01
71643;BME280;59438;45.014;39.006;2022-10-15T01:57:12;101805.41;;;7.73;67.81
71643;BME280;59438;45.014;39.006;2022-10-15T01:59:39;101810.66;;;7.75;67.70
71643;BME280;59438;45.014;39.006;2022-10-15T02:02:07;101801.09;;;7.72;68.06
71643;BME280;59438;45.014;39.006;2022-10-15T02:04:34;101806.31;;;7.69;67.89
71643;BME280;59438;45.014;39.006;2022-10-15T02:07:03;101805.47;;;7.67;68.09
71643;BME280;59438;45.014;39.006;2022-10-15T02:09:39;101763.81;;;7.41;68.58
71643;BME280;59438;45.014;39.006;2022-10-15T02:12:14;101805.50;;;7.62;68.52
71643;BME280;59438;45.014;39.006;2022-10-15T02:14:52;101806.34;;;7.66;68.01
71643;BME280;59438;45.014;39.006;2022-10-15T02:17:28;101808.97;;;7.63;68.31
71643;BME280;59438;45.014;39.006;2022-10-15T02:20:00;101759.56;;;7.29;68.32
71643;BME280;59438;45.014;39.006;2022-10-15T02:22:33;101813.38;;;7.58;68.30
71643;BME280;59438;45.014;39.006;2022-10-15T02:25:05;101815.13;;;7.59;68.19
71643;BME280;59438;45.014;39.006;2022-10-15T02:27:35;101812.50;;;7.60;68.41
71643;BME280;59438;45.014;39.006;2022-10-15T02:30:04;101758.69;;;7.24;68.29
71643;BME280;59438;45.014;39.006;2022-10-15T02:32:34;101813.44;;;7.52;68.18
71643;BME280;59438;45.014;39.006;2022-10-15T02:35:02;101810.81;;;7.47;68.95
71643;BME280;59438;45.014;39.006;2022-10-15T02:37:30;101815.19;;;7.46;68.60
71643;BME280;59438;45.014;39.006;2022-10-15T02:39:57;101810.88;;;7.42;68.87
71643;BME280;59438;45.014;39.006;2022-10-15T02:42:24;101807.38;;;7.40;68.85
71643;BME280;59438;45.014;39.006;2022-10-15T02:44:51;101807.44;;;7.37;68.30
71643;BME280;59438;45.014;39.006;2022-10-15T02:47:18;101810.03;;;7.36;68.17
71643;BME280;59438;45.014;39.006;2022-10-15T02:49:45;101818.78;;;7.32;68.36
71643;BME280;59438;45.014;39.006;2022-10-15T02:52:13;101822.25;;;7.34;69.03
71643;BME280;59438;45.014;39.006;2022-10-15T02:54:39;101816.16;;;7.33;68.92
71643;BME280;59438;45.014;39.006;2022-10-15T02:57:05;101803.94;;;7.32;68.85
71643;BME280;59438;45.014;39.006;2022-10-15T02:59:32;101814.41;;;7.32;68.46
71643;BME280;59438;45.014;39.006;2022-10-15T03:01:58;101810.06;;;7.28;68.32
71643;BME280;59438;45.014;39.006;2022-10-15T03:04:24;101815.34;;;7.25;69.06
71643;BME280;59438;45.014;39.006;2022-10-15T03:06:51;101812.72;;;7.22;68.78
71643;BME280;59438;45.014;39.006;2022-10-15T03:09:19;101811.00;;;7.21;69.08
71643;BME280;59438;45.014;39.006;2022-10-15T03:11:45;101814.47;;;7.21;69.64
71643;BME280;59438;45.014;39.006;2022-10-15T03:14:12;101815.38;;;7.19;69.25
71643;BME280;59438;45.014;39.006;2022-10-15T03:16:38;101811.91;;;7.12;69.34
71643;BME280;59438;45.014;39.006;2022-10-15T03:19:05;101823.22;;;7.17;68.86
71643;BME280;59438;45.014;39.006;2022-10-15T03:21:31;101817.97;;;7.16;68.96
71643;BME280;59438;45.014;39.006;2022-10-15T03:23:58;101817.13;;;7.14;68.72
71643;BME280;59438;45.014;39.006;2022-10-15T03:26:25;101823.25;;;7.13;69.43
71643;BME280;59438;45.014;39.006;2022-10-15T03:28:52;101804.13;;;7.03;69.58
71643;BME280;59438;45.014;39.006;2022-10-15T03:31:18;101821.47;;;7.12;69.65
71643;BME280;59438;45.014;39.006;2022-10-15T03:33:45;101829.31;;;7.13;69.67
71643;BME280;59438;45.014;39.006;2022-10-15T03:36:11;101828.50;;;7.05;69.16
71643;BME280;59438;45.014;39.006;2022-10-15T03:38:38;101827.59;;;7.09;69.89
71643;BME280;59438;45.014;39.006;2022-10-15T03:41:04;101830.22;;;7.06;69.70
71643;BME280;59438;45.014;39.006;2022-10-15T03:43:32;101834.56;;;7.04;69.31
71643;BME280;59438;45.014;39.006;2022-10-15T03:46:01;101818.06;;;6.97;70.18
71643;BME280;59438;45.014;39.006;2022-10-15T03:48:27;101821.53;;;7.01;69.18
71643;BME280;59438;45.014;39.006;2022-10-15T03:50:54;101832.00;;;6.99;69.85
71643;BME280;59438;45.014;39.006;2022-10-15T03:53:20;101816.34;;;6.92;70.10
71643;BME280;59438;45.014;39.006;2022-10-15T03:55:46;101832.00;;;6.99;69.80
71643;BME280;59438;45.014;39.006;2022-10-15T03:58:13;101819.81;;;6.97;70.11
71643;BME280;59438;45.014;39.006;2022-10-15T04:00:42;101832.00;;;7.01;70.13
71643;BME280;59438;45.014;39.006;2022-10-15T04:03:08;101831.97;;;7.07;69.71
71643;BME280;59438;45.014;39.006;2022-10-15T04:05:35;101793.75;;;6.81;70.29
71643;BME280;59438;45.014;39.006;2022-10-15T04:08:02;101835.47;;;7.01;69.63
71643;BME280;59438;45.014;39.006;2022-10-15T04:10:29;101825.91;;;7.00;69.20
71643;BME280;59438;45.014;39.006;2022-10-15T04:12:56;101842.44;;;6.99;69.83
71643;BME280;59438;45.014;39.006;2022-10-15T04:15:22;101849.41;;;6.97;69.64
71643;BME280;59438;45.014;39.006;2022-10-15T04:17:52;101784.22;;;6.66;70.44
71643;BME280;59438;45.014;39.006;2022-10-15T04:20:19;101850.31;;;6.95;70.56
71643;BME280;59438;45.014;39.006;2022-10-15T04:22:45;101841.56;;;6.97;69.94
71643;BME280;59438;45.014;39.006;2022-10-15T04:25:12;101847.66;;;7.02;70.02
71643;BME280;59438;45.014;39.006;2022-10-15T04:27:38;101843.31;;;7.00;70.14
71643;BME280;59438;45.014;39.006;2022-10-15T04:30:05;101842.44;;;7.02;70.49
71643;BME280;59438;45.014;39.006;2022-10-15T04:32:32;101833.75;;;7.00;70.09
71643;BME280;59438;45.014;39.006;2022-10-15T04:35:00;101847.59;;;7.10;70.25
71643;BME280;59438;45.014;39.006;2022-10-15T04:37:26;101851.09;;;7.12;70.68
71643;BME280;59438;45.014;39.006;2022-10-15T04:39:53;101848.50;;;7.09;70.64
71643;BME280;59438;45.014;39.006;2022-10-15T04:42:19;101843.28;;;7.11;70.94
71643;BME280;59438;45.014;39.006;2022-10-15T04:44:45;101854.56;;;7.16;70.92
71643;BME280;59438;45.014;39.006;2022-10-15T04:47:12;101852.81;;;7.19;70.70
71643;BME280;59438;45.014;39.006;2022-10-15T04:49:38;101852.78;;;7.25;70.03
71643;BME280;59438;45.014;39.006;2022-10-15T04:52:07;101849.28;;;7.31;70.88
71643;BME280;59438;45.014;39.006;2022-10-15T04:54:33;101858.81;;;7.37;70.19
71643;BME280;59438;45.014;39.006;2022-10-15T04:56:59;101863.16;;;7.41;70.53
71643;BME280;59438;45.014;39.006;2022-10-15T04:59:27;101863.16;;;7.44;70.29
71643;BME280;59438;45.014;39.006;2022-10-15T05:01:54;101866.59;;;7.49;70.56
71643;BME280;59438;45.014;39.006;2022-10-15T05:04:20;101870.03;;;7.59;70.38
71643;BME280;59438;45.014;39.006;2022-10-15T05:06:47;101859.59;;;7.56;70.50
71643;BME280;59438;45.014;39.006;2022-10-15T05:09:15;101863.00;;;7.65;70.40
71643;BME280;59438;45.014;39.006;2022-10-15T05:11:41;101872.56;;;7.70;70.11
71643;BME280;59438;45.014;39.006;2022-10-15T05:14:08;101871.66;;;7.78;70.14
71643;BME280;59438;45.014;39.006;2022-10-15T05:16:34;101877.72;;;7.85;70.38
71643;BME280;59438;45.014;39.006;2022-10-15T05:19:02;101876.81;;;7.89;70.38
71643;BME280;59438;45.014;39.006;2022-10-15T05:21:29;101879.38;;;7.94;70.33
71643;BME280;59438;45.014;39.006;2022-10-15T05:23:57;101881.94;;;8.00;70.20
71643;BME280;59438;45.014;39.006;2022-10-15T05:26:26;101883.66;;;8.04;70.23
71643;BME280;59438;45.014;39.006;2022-10-15T05:28:54;101854.06;;;7.97;70.60
71643;BME280;59438;45.014;39.006;2022-10-15T05:31:23;101882.72;;;8.16;70.24
71643;BME280;59438;45.014;39.006;2022-10-15T05:33:51;101844.47;;;7.99;70.60
71643;BME280;59438;45.014;39.006;2022-10-15T05:36:19;101879.94;;;8.30;70.31
71643;BME280;59438;45.014;39.006;2022-10-15T05:38:48;101879.88;;;8.37;69.70
71643;BME280;59438;45.014;39.006;2022-10-15T05:41:15;101873.78;;;8.38;69.87
71643;BME280;59438;45.014;39.006;2022-10-15T05:43:45;101868.53;;;8.44;70.71
71643;BME280;59438;45.014;39.006;2022-10-15T05:46:11;101871.03;;;8.57;69.74
71643;BME280;59438;45.014;39.006;2022-10-15T05:48:38;101871.81;;;8.63;69.72
71643;BME280;59438;45.014;39.006;2022-10-15T05:51:06;101876.09;;;8.71;70.18
71643;BME280;59438;45.014;39.006;2022-10-15T05:53:32;101883.03;;;8.79;69.52
71643;BME280;59438;45.014;39.006;2022-10-15T05:55:59;101871.56;;;8.85;69.72
71643;BME280;59438;45.014;39.006;2022-10-15T05:58:27;101875.81;;;8.97;69.41
71643;BME280;59438;45.014;39.006;2022-10-15T06:00:55;101877.44;;;9.07;69.18
71643;BME280;59438;45.014;39.006;2022-10-15T06:03:22;101883.44;;;9.18;68.83
71643;BME280;59438;45.014;39.006;2022-10-15T06:05:49;101874.59;;;9.27;69.29
71643;BME280;59438;45.014;39.006;2022-10-15T06:08:15;101877.09;;;9.35;69.04
71643;BME280;59438;45.014;39.006;2022-10-15T06:10:42;101885.69;;;9.44;69.24
71643;BME280;59438;45.014;39.006;2022-10-15T06:13:09;101882.13;;;9.52;68.34
71643;BME280;59438;45.014;39.006;2022-10-15T06:15:38;101880.22;;;9.61;69.43
71643;BME280;59438;45.014;39.006;2022-10-15T06:18:06;101868.75;;;9.68;68.82
71643;BME280;59438;45.014;39.006;2022-10-15T06:20:33;101878.16;;;9.83;67.93
71643;BME280;59438;45.014;39.006;2022-10-15T06:22:59;101878.91;;;9.92;68.48
71643;BME280;59438;45.014;39.006;2022-10-15T06:25:26;101879.66;;;10.00;68.22
71643;BME280;59438;45.014;39.006;2022-10-15T06:27:53;101880.38;;;10.11;68.21
71643;BME280;59438;45.014;39.006;2022-10-15T06:30:19;101875.84;;;10.19;68.05
71643;BME280;59438;45.014;39.006;2022-10-15T06:32:47;101874.84;;;10.26;67.63
71643;BME280;59438;45.014;39.006;2022-10-15T06:35:15;101866.94;;;10.28;66.96
71643;BME280;59438;45.014;39.006;2022-10-15T06:37:42;101874.53;;;10.46;67.11
71643;BME280;59438;45.014;39.006;2022-10-15T06:40:09;101877.00;;;10.54;66.69
71643;BME280;59438;45.014;39.006;2022-10-15T06:42:36;101856.78;;;10.58;65.81
71643;BME280;59438;45.014;39.006;2022-10-15T06:45:03;101865.31;;;10.71;66.43
71643;BME280;59438;45.014;39.006;2022-10-15T06:47:29;101866.88;;;10.81;65.74
71643;BME280;59438;45.014;39.006;2022-10-15T06:49:56;101873.66;;;10.91;65.71
71643;BME280;59438;45.014;39.006;2022-10-15T06:52:24;101867.28;;;11.04;65.30
71643;BME280;59438;45.014;39.006;2022-10-15T06:54:50;101866.31;;;11.10;65.19
71643;BME280;59438;45.014;39.006;2022-10-15T06:57:17;101856.50;;;11.18;65.17
71643;BME280;59438;45.014;39.006;2022-10-15T06:59:43;101859.84;;;11.25;64.73
71643;BME280;59438;45.014;39.006;2022-10-15T07:02:10;101857.00;;;11.34;64.29
71643;BME280;59438;45.014;39.006;2022-10-15T07:04:36;101856.72;;;11.48;63.92
71643;BME280;59438;45.014;39.006;2022-10-15T07:07:03;101852.25;;;11.52;63.28
71643;BME280;59438;45.014;39.006;2022-10-15T07:09:31;101847.78;;;11.55;63.81
71643;BME280;59438;45.014;39.006;2022-10-15T07:11:58;101851.19;;;11.59;63.29
71643;BME280;59438;45.014;39.006;2022-10-15T07:14:25;101865.97;;;11.66;63.40
71643;BME280;59438;45.014;39.006;2022-10-15T07:16:51;101863.94;;;11.77;62.83
71643;BME280;59438;45.014;39.006;2022-10-15T07:19:18;101840.91;;;11.85;62.15
71643;BME280;59438;45.014;39.006;2022-10-15T07:21:44;101853.00;;;11.96;62.54
71643;BME280;59438;45.014;39.006;2022-10-15T07:24:10;101833.66;;;11.97;61.70
71643;BME280;59438;45.014;39.006;2022-10-15T07:26:38;101859.75;;;12.06;61.76
71643;BME280;59438;45.014;39.006;2022-10-15T07:29:05;101853.44;;;12.13;61.47
71643;BME280;59438;45.014;39.006;2022-10-15T07:31:31;101848.19;;;12.13;61.21
71643;BME280;59438;45.014;39.006;2022-10-15T07:33:58;101846.22;;;12.21;61.27
71643;BME280;59438;45.014;39.006;2022-10-15T07:36:25;101847.63;;;12.35;61.09
71643;BME280;59438;45.014;39.006;2022-10-15T07:38:51;101840.66;;;12.32;60.83
71643;BME280;59438;45.014;39.006;2022-10-15T07:41:18;101840.38;;;12.43;60.48
71643;BME280;59438;45.014;39.006;2022-10-15T07:43:46;101850.53;;;12.58;59.79
71643;BME280;59438;45.014;39.006;2022-10-15T07:46:12;101849.28;;;12.70;59.61
71643;BME280;59438;45.014;39.006;2022-10-15T07:48:39;101849.19;;;12.75;59.50
71643;BME280;59438;45.014;39.006;2022-10-15T07:51:06;101854.19;;;12.84;59.10
71643;BME280;59438;45.014;39.006;2022-10-15T07:53:33;101842.47;;;12.94;58.69
71643;BME280;59438;45.014;39.006;2022-10-15T07:56:01;101851.13;;;12.99;58.28
71643;BME280;59438;45.014;39.006;2022-10-15T07:58:28;101841.31;;;13.04;58.31
71643;BME280;59438;45.014;39.006;2022-10-15T08:00:58;101790.09;;;12.82;58.42
71643;BME280;59438;45.014;39.006;2022-10-15T08:03:24;101847.88;;;13.19;58.37
71643;BME280;59438;45.014;39.006;2022-10-15T08:05:51;101854.66;;;13.29;58.47
71643;BME280;59438;45.014;39.006;2022-10-15T08:08:17;101834.94;;;13.41;57.25
71643;BME280;59438;45.014;39.006;2022-10-15T08:10:44;101854.75;;;13.55;56.12
71643;BME280;59438;45.014;39.006;2022-10-15T08:13:10;101839.00;;;13.53;56.54
71643;BME280;59438;45.014;39.006;2022-10-15T08:15:38;101843.47;;;13.51;56.40
71643;BME280;59438;45.014;39.006;2022-10-15T08:18:06;101833.63;;;13.55;56.47
71643;BME280;59438;45.014;39.006;2022-10-15T08:20:32;101835.28;;;13.59;56.81
71643;BME280;59438;45.014;39.006;2022-10-15T08:22:58;101845.53;;;13.69;56.68
71643;BME280;59438;45.014;39.006;2022-10-15T08:25:25;101839.94;;;13.79;55.97
71643;BME280;59438;45.014;39.006;2022-10-15T08:27:52;101853.75;;;13.87;55.57
71643;BME280;59438;45.014;39.006;2022-10-15T08:30:19;101837.84;;;13.88;55.15
71643;BME280;59438;45.014;39.006;2022-10-15T08:32:45;101841.19;;;13.94;55.47
71643;BME280;59438;45.014;39.006;2022-10-15T08:35:13;101846.44;;;13.95;55.02
71643;BME280;59438;45.014;39.006;2022-10-15T08:37:40;101837.44;;;14.01;54.99
71643;BME280;59438;45.014;39.006;2022-10-15T08:40:08;101845.38;;;14.01;55.22
71643;BME280;59438;45.014;39.006;2022-10-15T08:42:36;101840.75;;;14.07;54.73
71643;BME280;59438;45.014;39.006;2022-10-15T08:45:09;101836.22;;;14.11;54.80
71643;BME280;59438;45.014;39.006;2022-10-15T08:47:40;101795.44;;;13.93;54.78
71643;BME280;59438;45.014;39.006;2022-10-15T08:50:19;101840.13;;;14.26;55.57
71643;BME280;59438;45.014;39.006;2022-10-15T08:52:49;101834.56;;;14.34;55.13
71643;BME280;59438;45.014;39.006;2022-10-15T08:55:17;101795.25;;;14.24;55.09
71643;BME280;59438;45.014;39.006;2022-10-15T08:57:47;101832.06;;;14.56;54.33
71643;BME280;59438;45.014;39.006;2022-10-15T09:00:18;101835.41;;;14.61;54.65
71643;BME280;59438;45.014;39.006;2022-10-15T09:02:47;101827.88;;;14.74;54.67
71643;BME280;59438;45.014;39.006;2022-10-15T09:05:32;101823.59;;;14.71;54.23
71643;BME280;59438;45.014;39.006;2022-10-15T09:08:14;101830.56;;;14.72;54.47
71643;BME280;59438;45.014;39.006;2022-10-15T09:10:46;101820.97;;;14.69;54.08
71643;BME280;59438;45.014;39.006;2022-10-15T09:13:19;101805.75;;;14.76;53.91
71643;BME280;59438;45.014;39.006;2022-10-15T09:15:50;101811.56;;;14.86;53.82
71643;BME280;59438;45.014;39.006;2022-10-15T09:18:21;101770.88;;;14.66;53.50
71643;BME280;59438;45.014;39.006;2022-10-15T09:20:50;101805.00;;;14.96;53.44
71643;BME280;59438;45.014;39.006;2022-10-15T09:23:21;101787.81;;;14.84;53.07
71643;BME280;59438;45.014;39.006;2022-10-15T09:25:52;101770.19;;;14.85;53.34
71643;BME280;59438;45.014;39.006;2022-10-15T09:28:25;101807.00;;;15.13;53.39
71643;BME280;59438;45.014;39.006;2022-10-15T09:30:56;101800.56;;;15.20;52.65
71643;BME280;59438;45.014;39.006;2022-10-15T09:33:34;101796.03;;;15.24;53.02
71643;BME280;59438;45.014;39.006;2022-10-15T09:36:18;101796.50;;;15.34;53.08
71643;BME280;59438;45.014;39.006;2022-10-15T09:38:59;101793.75;;;15.37;52.33
71643;BME280;59438;45.014;39.006;2022-10-15T09:41:35;101786.59;;;15.39;52.51
71643;BME280;59438;45.014;39.006;2022-10-15T09:44:10;101739.69;;;15.20;52.22
71643;BME280;59438;45.014;39.006;2022-10-15T09:46:43;101781.00;;;15.46;52.74
71643;BME280;59438;45.014;39.006;2022-10-15T09:49:13;101762.59;;;15.43;51.89
71643;BME280;59438;45.014;39.006;2022-10-15T09:51:47;101771.63;;;15.60;51.44
71643;BME280;59438;45.014;39.006;2022-10-15T09:54:23;101781.78;;;15.70;51.87
71643;BME280;59438;45.014;39.006;2022-10-15T09:56:53;101781.56;;;15.77;51.30
71643;BME280;59438;45.014;39.006;2022-10-15T09:59:21;101778.84;;;15.78;50.98
71643;BME280;59438;45.014;39.006;2022-10-15T10:01:56;101778.69;;;15.81;51.40
71643;BME280;59438;45.014;39.006;2022-10-15T10:04:25;101769.84;;;15.82;51.45
71643;BME280;59438;45.014;39.006;2022-10-15T10:06:55;101773.03;;;15.90;50.39
71643;BME280;59438;45.014;39.006;2022-10-15T10:09:24;101720.72;;;15.75;50.27
71643;BME280;59438;45.014;39.006;2022-10-15T10:11:53;101767.06;;;16.06;49.88
71643;BME280;59438;45.014;39.006;2022-10-15T10:14:26;101772.09;;;16.12;50.30
71643;BME280;59438;45.014;39.006;2022-10-15T10:17:12;101748.72;;;16.01;49.96
71643;BME280;59438;45.014;39.006;2022-10-15T10:19:39;101770.13;;;16.17;50.11
71643;BME280;59438;45.014;39.006;2022-10-15T10:22:13;101710.19;;;15.94;49.78
71643;BME280;59438;45.014;39.006;2022-10-15T10:24:40;101765.47;;;16.22;49.82
71643;BME280;59438;45.014;39.006;2022-10-15T10:27:17;101716.06;;;16.01;50.67
71643;BME280;59438;45.014;39.006;2022-10-15T10:29:48;101770.38;;;16.31;49.32
71643;BME280;59438;45.014;39.006;2022-10-15T10:32:19;101741.69;;;16.21;49.71
71643;BME280;59438;45.014;39.006;2022-10-15T10:34:47;101762.38;;;16.33;50.34
71643;BME280;59438;45.014;39.006;2022-10-15T10:37:15;101756.69;;;16.41;50.36
71643;BME280;59438;45.014;39.006;2022-10-15T10:39:41;101762.59;;;16.47;50.28
71643;BME280;59438;45.014;39.006;2022-10-15T10:42:24;101762.19;;;16.57;49.96
71643;BME280;59438;45.014;39.006;2022-10-15T10:44:51;101763.81;;;16.59;49.26
71643;BME280;59438;45.014;39.006;2022-10-15T10:47:19;101758.47;;;16.61;49.25
71643;BME280;59438;45.014;39.006;2022-10-15T10:49:47;101747.13;;;16.57;49.31
71643;BME280;59438;45.014;39.006;2022-10-15T10:52:21;101744.56;;;16.56;49.67
71643;BME280;59438;45.014;39.006;2022-10-15T10:54:58;101757.25;;;16.68;50.04
71643;BME280;59438;45.014;39.006;2022-10-15T10:57:41;101753.25;;;16.78;49.85
71643;BME280;59438;45.014;39.006;2022-10-15T11:00:13;101753.78;;;16.86;48.80
71643;BME280;59438;45.014;39.006;2022-10-15T11:02:40;101739.53;;;16.68;49.55
71643;BME280;59438;45.014;39.006;2022-10-15T11:05:07;101753.31;;;16.77;49.27
71643;BME280;59438;45.014;39.006;2022-10-15T11:07:40;101709.06;;;16.58;49.57
71643;BME280;59438;45.014;39.006;2022-10-15T11:10:17;101714.44;;;16.57;50.10
71643;BME280;59438;45.014;39.006;2022-10-15T11:13:00;101750.34;;;16.84;50.13
71643;BME280;59438;45.014;39.006;2022-10-15T11:15:41;101730.56;;;16.71;50.03
71643;BME280;59438;45.014;39.006;2022-10-15T11:18:35;101753.63;;;16.89;49.88
71643;BME280;59438;45.014;39.006;2022-10-15T11:21:12;101750.19;;;16.87;49.09
71643;BME280;59438;45.014;39.006;2022-10-15T11:23:57;101753.78;;;16.86;49.63
71643;BME280;59438;45.014;39.006;2022-10-15T11:26:42;101751.03;;;16.88;49.55
71643;BME280;59438;45.014;39.006;2022-10-15T11:29:21;101738.94;;;16.82;49.24
71643;BME280;59438;45.014;39.006;2022-10-15T11:31:54;101743.44;;;16.80;49.18
71643;BME280;59438;45.014;39.006;2022-10-15T11:34:30;101750.41;;;16.83;49.84
71643;BME280;59438;45.014;39.006;2022-10-15T11:37:11;101742.38;;;16.84;49.64
71643;BME280;59438;45.014;39.006;2022-10-15T11:39:57;101744.25;;;16.82;49.36
71643;BME280;59438;45.014;39.006;2022-10-15T11:42:33;101746.09;;;16.80;49.07
71643;BME280;59438;45.014;39.006;2022-10-15T11:45:11;101742.53;;;16.80;49.34
71643;BME280;59438;45.014;39.006;2022-10-15T11:47:49;101753.16;;;16.80;49.17
71643;BME280;59438;45.014;39.006;2022-10-15T11:50:26;101743.78;;;16.72;49.46
71643;BME280;59438;45.014;39.006;2022-10-15T11:53:03;101744.63;;;16.73;49.71
71643;BME280;59438;45.014;39.006;2022-10-15T11:55:38;101710.94;;;16.56;49.04
71643;BME280;59438;45.014;39.006;2022-10-15T11:58:11;101752.22;;;16.82;49.50
71643;BME280;59438;45.014;39.006;2022-10-15T12:00:41;101749.47;;;16.84;49.17
71643;BME280;59438;45.014;39.006;2022-10-15T12:03:14;101755.50;;;16.87;49.23
71643;BME280;59438;45.014;39.006;2022-10-15T12:05:45;101752.22;;;16.82;48.49
71643;BME280;59438;45.014;39.006;2022-10-15T12:08:14;101747.81;;;16.81;48.78
71643;BME280;59438;45.014;39.006;2022-10-15T12:13:47;101742.63;;;16.78;48.73
71643;BME280;59438;45.014;39.006;2022-10-15T12:16:26;101763.53;;;16.86;49.17
71643;BME280;59438;45.014;39.006;2022-10-15T12:19:01;101758.09;;;16.89;48.85
71643;BME280;59438;45.014;39.006;2022-10-15T12:21:35;101756.44;;;16.86;48.58
71643;BME280;59438;45.014;39.006;2022-10-15T12:24:03;101752.91;;;16.86;48.65
71643;BME280;59438;45.014;39.006;2022-10-15T12:26:31;101747.53;;;16.87;48.80
71643;BME280;59438;45.014;39.006;2022-10-15T12:29:02;101765.38;;;16.84;48.68
71643;BME280;59438;45.014;39.006;2022-10-15T12:31:47;101759.78;;;16.90;49.03
71643;BME280;59438;45.014;39.006;2022-10-15T12:34:27;101756.75;;;16.79;48.70
71643;BME280;59438;45.014;39.006;2022-10-15T12:37:02;101752.38;;;16.78;48.71
71643;BME280;59438;45.014;39.006;2022-10-15T12:39:30;101756.75;;;16.79;48.60
71643;BME280;59438;45.014;39.006;2022-10-15T12:41:58;101758.63;;;16.77;48.71
71643;BME280;59438;45.014;39.006;2022-10-15T12:44:28;101761.22;;;16.78;48.53
71643;BME280;59438;45.014;39.006;2022-10-15T12:46:56;101754.22;;;16.76;48.83
71643;BME280;59438;45.014;39.006;2022-10-15T12:49:45;101755.03;;;16.78;48.97
71643;BME280;59438;45.014;39.006;2022-10-15T12:55:21;101757.16;;;16.69;48.66
71643;BME280;59438;45.014;39.006;2022-10-15T12:57:53;101743.41;;;16.61;48.65
71643;BME280;59438;45.014;39.006;2022-10-15T13:00:41;101749.44;;;16.65;49.17
71643;BME280;59438;45.014;39.006;2022-10-15T13:03:21;101752.09;;;16.65;48.79
71643;BME280;59438;45.014;39.006;2022-10-15T13:05:48;101754.09;;;16.60;48.59
71643;BME280;59438;45.014;39.006;2022-10-15T13:08:25;101755.81;;;16.61;48.70